sensor_id;sensor_type;location;lat;lon;timestamp;temperature;humidity
3850;DHT22;1940;51.052;13.678;2023-07-29T00:00:31;20.90;84.90
3850;DHT22;1940;51.052;13.678;2023-07-29T00:02:58;20.90;85.00
3850;DHT22;1940;51.052;13.678;2023-07-29T00:05:23;20.90;85.00
3850;DHT22;1940;51.052;13.678;2023-07-29T00:07:49;20.80;85.10
3850;DHT22;1940;51.052;13.678;2023-07-29T00:10:14;20.80;85.10
3850;DHT22;1940;51.052;13.678;2023-07-29T00:12:40;20.80;85.10
3850;DHT22;1940;51.052;13.678;2023-07-29T00:15:06;20.80;85.00
3850;DHT22;1940;51.052;13.678;2023-07-29T00:17:31;20.80;85.10
3850;DHT22;1940;51.052;13.678;2023-07-29T00:19:57;20.80;85.20
3850;DHT22;1940;51.052;13.678;2023-07-29T00:22:22;20.70;85.50
3850;DHT22;1940;51.052;13.678;2023-07-29T00:24:52;20.70;85.50
3850;DHT22;1940;51.052;13.678;2023-07-29T00:27:20;20.60;85.70
3850;DHT22;1940;51.052;13.678;2023-07-29T00:29:45;20.70;85.70
3850;DHT22;1940;51.052;13.678;2023-07-29T00:32:11;20.60;85.80
3850;DHT22;1940;51.052;13.678;2023-07-29T00:34:36;20.70;85.70
3850;DHT22;1940;51.052;13.678;2023-07-29T00:37:02;20.70;85.60
3850;DHT22;1940;51.052;13.678;2023-07-29T00:39:27;20.60;85.70
3850;DHT22;1940;51.052;13.678;2023-07-29T00:41:53;20.60;85.80
3850;DHT22;1940;51.052;13.678;2023-07-29T00:44:18;20.50;86.20
3850;DHT22;1940;51.052;13.678;2023-07-29T00:46:45;20.40;86.60
3850;DHT22;1940;51.052;13.678;2023-07-29T00:49:11;20.40;86.50
3850;DHT22;1940;51.052;13.678;2023-07-29T00:51:37;20.50;86.40
3850;DHT22;1940;51.052;13.678;2023-07-29T00:54:02;20.50;86.50
3850;DHT22;1940;51.052;13.678;2023-07-29T00:56:28;20.50;86.80
3850;DHT22;1940;51.052;13.678;2023-07-29T00:58:54;20.40;86.90
3850;DHT22;1940;51.052;13.678;2023-07-29T01:01:24;20.40;87.00
3850;DHT22;1940;51.052;13.678;2023-07-29T01:03:50;20.40;87.20
3850;DHT22;1940;51.052;13.678;2023-07-29T01:09:00;20.30;87.50
3850;DHT22;1940;51.052;13.678;2023-07-29T01:11:43;20.30;87.50
3850;DHT22;1940;51.052;13.678;2023-07-29T01:14:21;20.30;87.50
3850;DHT22;1940;51.052;13.678;2023-07-29T01:16:56;20.20;87.50
3850;DHT22;1940;51.052;13.678;2023-07-29T01:22:06;20.10;88.00
3850;DHT22;1940;51.052;13.678;2023-07-29T01:24:32;20.10;88.20
3850;DHT22;1940;51.052;13.678;2023-07-29T01:26:58;20.00;88.20
3850;DHT22;1940;51.052;13.678;2023-07-29T01:29:23;19.90;88.50
3850;DHT22;1940;51.052;13.678;2023-07-29T01:31:54;19.80;89.00
3850;DHT22;1940;51.052;13.678;2023-07-29T01:34:29;19.80;89.10
3850;DHT22;1940;51.052;13.678;2023-07-29T01:36:57;19.70;89.30
3850;DHT22;1940;51.052;13.678;2023-07-29T01:39:26;19.70;89.30
3850;DHT22;1940;51.052;13.678;2023-07-29T01:41:53;19.70;89.40
3850;DHT22;1940;51.052;13.678;2023-07-29T01:44:19;19.70;89.40
3850;DHT22;1940;51.052;13.678;2023-07-29T01:46:45;19.70;89.20
3850;DHT22;1940;51.052;13.678;2023-07-29T01:49:10;19.70;89.20
3850;DHT22;1940;51.052;13.678;2023-07-29T01:51:36;19.70;89.10
3850;DHT22;1940;51.052;13.678;2023-07-29T01:54:01;19.80;89.00
3850;DHT22;1940;51.052;13.678;2023-07-29T01:56:27;19.80;88.90
3850;DHT22;1940;51.052;13.678;2023-07-29T01:58:52;19.70;89.00
3850;DHT22;1940;51.052;13.678;2023-07-29T02:01:18;19.70;88.90
3850;DHT22;1940;51.052;13.678;2023-07-29T02:03:43;19.70;88.90
3850;DHT22;1940;51.052;13.678;2023-07-29T02:06:09;19.60;89.30
3850;DHT22;1940;51.052;13.678;2023-07-29T02:08:35;19.50;89.40
3850;DHT22;1940;51.052;13.678;2023-07-29T02:11:00;19.50;89.50
3850;DHT22;1940;51.052;13.678;2023-07-29T02:13:26;19.50;89.70
3850;DHT22;1940;51.052;13.678;2023-07-29T02:15:51;19.50;89.60
3850;DHT22;1940;51.052;13.678;2023-07-29T02:18:17;19.50;89.60
3850;DHT22;1940;51.052;13.678;2023-07-29T02:20:42;19.40;89.80
3850;DHT22;1940;51.052;13.678;2023-07-29T02:23:14;19.30;90.00
3850;DHT22;1940;51.052;13.678;2023-07-29T02:25:40;19.40;89.70
3850;DHT22;1940;51.052;13.678;2023-07-29T02:28:05;19.40;89.80
3850;DHT22;1940;51.052;13.678;2023-07-29T02:30:31;19.40;89.70
3850;DHT22;1940;51.052;13.678;2023-07-29T02:32:56;19.50;89.50
3850;DHT22;1940;51.052;13.678;2023-07-29T02:35:22;19.50;89.40
3850;DHT22;1940;51.052;13.678;2023-07-29T02:37:47;19.50;89.10
3850;DHT22;1940;51.052;13.678;2023-07-29T02:40:13;19.50;88.90
3850;DHT22;1940;51.052;13.678;2023-07-29T02:42:38;19.60;88.80
3850;DHT22;1940;51.052;13.678;2023-07-29T02:45:04;19.60;88.80
3850;DHT22;1940;51.052;13.678;2023-07-29T02:47:30;19.60;88.70
3850;DHT22;1940;51.052;13.678;2023-07-29T02:49:55;19.60;88.50
3850;DHT22;1940;51.052;13.678;2023-07-29T02:52:21;19.60;88.60
3850;DHT22;1940;51.052;13.678;2023-07-29T02:54:46;19.60;88.70
3850;DHT22;1940;51.052;13.678;2023-07-29T02:57:13;19.60;88.80
3850;DHT22;1940;51.052;13.678;2023-07-29T02:59:39;19.60;88.70
3850;DHT22;1940;51.052;13.678;2023-07-29T03:02:04;19.70;88.60
3850;DHT22;1940;51.052;13.678;2023-07-29T03:04:30;19.70;88.60
3850;DHT22;1940;51.052;13.678;2023-07-29T03:06:55;19.60;88.70
3850;DHT22;1940;51.052;13.678;2023-07-29T03:09:21;19.60;88.80
3850;DHT22;1940;51.052;13.678;2023-07-29T03:11:46;19.50;88.80
3850;DHT22;1940;51.052;13.678;2023-07-29T03:14:12;19.60;88.80
3850;DHT22;1940;51.052;13.678;2023-07-29T03:16:38;19.60;88.70
3850;DHT22;1940;51.052;13.678;2023-07-29T03:19:04;19.60;88.80
3850;DHT22;1940;51.052;13.678;2023-07-29T03:21:31;19.60;88.40
3850;DHT22;1940;51.052;13.678;2023-07-29T03:23:57;19.60;88.70
3850;DHT22;1940;51.052;13.678;2023-07-29T03:26:22;19.50;88.90
3850;DHT22;1940;51.052;13.678;2023-07-29T03:28:48;19.60;88.90
3850;DHT22;1940;51.052;13.678;2023-07-29T03:31:13;19.60;88.70
3850;DHT22;1940;51.052;13.678;2023-07-29T03:33:39;19.70;88.40
3850;DHT22;1940;51.052;13.678;2023-07-29T03:36:04;19.80;88.20
3850;DHT22;1940;51.052;13.678;2023-07-29T03:38:30;19.90;87.70
3850;DHT22;1940;51.052;13.678;2023-07-29T03:40:57;20.10;87.20
3850;DHT22;1940;51.052;13.678;2023-07-29T03:43:22;20.10;87.00
3850;DHT22;1940;51.052;13.678;2023-07-29T03:45:48;20.10;86.90
3850;DHT22;1940;51.052;13.678;2023-07-29T03:48:14;20.10;86.90
3850;DHT22;1940;51.052;13.678;2023-07-29T03:50:39;20.10;86.70
3850;DHT22;1940;51.052;13.678;2023-07-29T03:53:05;20.20;86.70
3850;DHT22;1940;51.052;13.678;2023-07-29T03:55:31;20.20;86.60
3850;DHT22;1940;51.052;13.678;2023-07-29T03:57:58;20.20;86.60
3850;DHT22;1940;51.052;13.678;2023-07-29T04:00:24;20.20;86.40
3850;DHT22;1940;51.052;13.678;2023-07-29T04:02:50;20.30;86.30
3850;DHT22;1940;51.052;13.678;2023-07-29T04:05:16;20.30;86.20
3850;DHT22;1940;51.052;13.678;2023-07-29T04:07:41;20.30;86.00
3850;DHT22;1940;51.052;13.678;2023-07-29T04:10:07;20.40;86.10
3850;DHT22;1940;51.052;13.678;2023-07-29T04:12:33;20.40;86.00
3850;DHT22;1940;51.052;13.678;2023-07-29T04:14:59;20.50;86.00
3850;DHT22;1940;51.052;13.678;2023-07-29T04:17:24;20.50;85.60
3850;DHT22;1940;51.052;13.678;2023-07-29T04:19:50;20.60;85.40
3850;DHT22;1940;51.052;13.678;2023-07-29T04:22:16;20.70;85.30
3850;DHT22;1940;51.052;13.678;2023-07-29T04:24:41;20.70;85.20
3850;DHT22;1940;51.052;13.678;2023-07-29T04:27:07;20.80;85.00
3850;DHT22;1940;51.052;13.678;2023-07-29T04:29:32;20.70;84.90
3850;DHT22;1940;51.052;13.678;2023-07-29T04:31:58;20.80;84.90
3850;DHT22;1940;51.052;13.678;2023-07-29T04:34:23;20.80;84.90
3850;DHT22;1940;51.052;13.678;2023-07-29T04:36:49;20.80;84.80
3850;DHT22;1940;51.052;13.678;2023-07-29T04:39:15;20.70;85.00
3850;DHT22;1940;51.052;13.678;2023-07-29T04:41:40;20.70;85.10
3850;DHT22;1940;51.052;13.678;2023-07-29T04:44:06;20.70;84.90
3850;DHT22;1940;51.052;13.678;2023-07-29T04:46:32;20.70;84.80
3850;DHT22;1940;51.052;13.678;2023-07-29T04:48:58;20.70;84.90
3850;DHT22;1940;51.052;13.678;2023-07-29T04:51:24;20.70;84.90
3850;DHT22;1940;51.052;13.678;2023-07-29T04:53:49;20.70;84.90
3850;DHT22;1940;51.052;13.678;2023-07-29T04:56:15;20.80;84.90
3850;DHT22;1940;51.052;13.678;2023-07-29T04:58:41;20.80;84.70
3850;DHT22;1940;51.052;13.678;2023-07-29T05:01:06;20.80;84.80
3850;DHT22;1940;51.052;13.678;2023-07-29T05:03:32;20.90;84.50
3850;DHT22;1940;51.052;13.678;2023-07-29T05:05:58;21.00;84.20
3850;DHT22;1940;51.052;13.678;2023-07-29T05:08:25;21.00;84.00
3850;DHT22;1940;51.052;13.678;2023-07-29T05:10:51;21.00;84.00
3850;DHT22;1940;51.052;13.678;2023-07-29T05:13:18;21.10;83.80
3850;DHT22;1940;51.052;13.678;2023-07-29T05:15:43;21.10;83.60
3850;DHT22;1940;51.052;13.678;2023-07-29T05:18:09;21.20;83.60
3850;DHT22;1940;51.052;13.678;2023-07-29T05:20:35;21.30;83.40
3850;DHT22;1940;51.052;13.678;2023-07-29T05:23:00;21.40;83.20
3850;DHT22;1940;51.052;13.678;2023-07-29T05:25:26;21.40;82.80
3850;DHT22;1940;51.052;13.678;2023-07-29T05:27:52;21.60;82.60
3850;DHT22;1940;51.052;13.678;2023-07-29T05:30:18;21.60;82.10
3850;DHT22;1940;51.052;13.678;2023-07-29T05:32:43;21.80;81.80
3850;DHT22;1940;51.052;13.678;2023-07-29T05:35:09;21.80;81.40
3850;DHT22;1940;51.052;13.678;2023-07-29T05:37:37;21.80;81.50
3850;DHT22;1940;51.052;13.678;2023-07-29T05:40:03;21.90;81.40
3850;DHT22;1940;51.052;13.678;2023-07-29T05:42:29;22.10;81.00
3850;DHT22;1940;51.052;13.678;2023-07-29T05:44:54;22.30;80.20
3850;DHT22;1940;51.052;13.678;2023-07-29T05:47:20;22.30;80.00
3850;DHT22;1940;51.052;13.678;2023-07-29T05:49:46;22.20;80.40
3850;DHT22;1940;51.052;13.678;2023-07-29T05:52:11;22.30;80.40
3850;DHT22;1940;51.052;13.678;2023-07-29T05:54:37;22.30;80.20
3850;DHT22;1940;51.052;13.678;2023-07-29T05:57:02;22.40;80.20
3850;DHT22;1940;51.052;13.678;2023-07-29T05:59:28;22.50;80.10
3850;DHT22;1940;51.052;13.678;2023-07-29T06:01:54;22.70;79.60
3850;DHT22;1940;51.052;13.678;2023-07-29T06:04:20;23.30;78.20
3850;DHT22;1940;51.052;13.678;2023-07-29T06:06:45;24.00;75.70
3850;DHT22;1940;51.052;13.678;2023-07-29T06:09:11;24.60;73.60
3850;DHT22;1940;51.052;13.678;2023-07-29T06:11:36;25.10;72.60
3850;DHT22;1940;51.052;13.678;2023-07-29T06:14:02;25.90;70.70
3850;DHT22;1940;51.052;13.678;2023-07-29T06:16:27;26.50;68.60
3850;DHT22;1940;51.052;13.678;2023-07-29T06:18:53;26.20;68.80
3850;DHT22;1940;51.052;13.678;2023-07-29T06:21:19;26.10;69.90
3850;DHT22;1940;51.052;13.678;2023-07-29T06:23:45;26.10;69.70
3850;DHT22;1940;51.052;13.678;2023-07-29T06:26:11;25.70;70.40
3850;DHT22;1940;51.052;13.678;2023-07-29T06:28:37;25.40;70.90
3850;DHT22;1940;51.052;13.678;2023-07-29T06:31:02;25.10;72.10
3850;DHT22;1940;51.052;13.678;2023-07-29T06:33:28;24.90;72.20
3850;DHT22;1940;51.052;13.678;2023-07-29T06:35:53;24.90;72.50
3850;DHT22;1940;51.052;13.678;2023-07-29T06:38:19;25.10;72.20
3850;DHT22;1940;51.052;13.678;2023-07-29T06:40:47;25.50;71.30
3850;DHT22;1940;51.052;13.678;2023-07-29T06:43:13;25.80;70.50
3850;DHT22;1940;51.052;13.678;2023-07-29T06:45:39;25.90;70.60
3850;DHT22;1940;51.052;13.678;2023-07-29T06:48:04;25.80;69.60
3850;DHT22;1940;51.052;13.678;2023-07-29T06:50:30;26.00;69.70
3850;DHT22;1940;51.052;13.678;2023-07-29T06:52:55;25.90;68.70
3850;DHT22;1940;51.052;13.678;2023-07-29T06:55:21;25.90;68.60
3850;DHT22;1940;51.052;13.678;2023-07-29T06:57:46;26.40;68.90
3850;DHT22;1940;51.052;13.678;2023-07-29T07:00:12;27.40;66.10
3850;DHT22;1940;51.052;13.678;2023-07-29T07:02:37;28.00;63.70
3850;DHT22;1940;51.052;13.678;2023-07-29T07:05:03;28.20;64.10
3850;DHT22;1940;51.052;13.678;2023-07-29T07:07:29;28.50;63.10
3850;DHT22;1940;51.052;13.678;2023-07-29T07:09:54;28.70;62.20
3850;DHT22;1940;51.052;13.678;2023-07-29T07:12:20;28.50;62.90
3850;DHT22;1940;51.052;13.678;2023-07-29T07:14:45;29.00;62.00
3850;DHT22;1940;51.052;13.678;2023-07-29T07:17:11;29.20;60.50
3850;DHT22;1940;51.052;13.678;2023-07-29T07:19:36;29.70;60.20
3850;DHT22;1940;51.052;13.678;2023-07-29T07:22:02;30.30;59.00
3850;DHT22;1940;51.052;13.678;2023-07-29T07:24:28;30.90;58.20
3850;DHT22;1940;51.052;13.678;2023-07-29T07:26:53;31.50;56.40
3850;DHT22;1940;51.052;13.678;2023-07-29T07:29:19;32.10;54.80
3850;DHT22;1940;51.052;13.678;2023-07-29T07:31:51;32.20;56.00
3850;DHT22;1940;51.052;13.678;2023-07-29T07:34:18;32.40;54.30
3850;DHT22;1940;51.052;13.678;2023-07-29T07:36:44;32.80;53.00
3850;DHT22;1940;51.052;13.678;2023-07-29T07:39:09;32.50;54.10
3850;DHT22;1940;51.052;13.678;2023-07-29T07:41:35;31.80;54.30
3850;DHT22;1940;51.052;13.678;2023-07-29T07:44:00;31.90;54.80
3850;DHT22;1940;51.052;13.678;2023-07-29T07:46:26;31.50;54.90
3850;DHT22;1940;51.052;13.678;2023-07-29T07:48:52;30.90;56.00
3850;DHT22;1940;51.052;13.678;2023-07-29T07:51:17;30.70;56.90
3850;DHT22;1940;51.052;13.678;2023-07-29T07:53:42;30.50;57.00
3850;DHT22;1940;51.052;13.678;2023-07-29T07:56:08;30.00;57.50
3850;DHT22;1940;51.052;13.678;2023-07-29T07:58:34;29.40;58.10
3850;DHT22;1940;51.052;13.678;2023-07-29T08:01:04;29.10;58.90
3850;DHT22;1940;51.052;13.678;2023-07-29T08:03:29;29.10;59.60
3850;DHT22;1940;51.052;13.678;2023-07-29T08:05:55;28.90;59.60
3850;DHT22;1940;51.052;13.678;2023-07-29T08:08:20;28.60;60.60
3850;DHT22;1940;51.052;13.678;2023-07-29T08:10:46;28.20;59.80
3850;DHT22;1940;51.052;13.678;2023-07-29T08:13:11;27.90;60.70
3850;DHT22;1940;51.052;13.678;2023-07-29T08:15:37;27.50;61.60
3850;DHT22;1940;51.052;13.678;2023-07-29T08:18:02;27.20;62.20
3850;DHT22;1940;51.052;13.678;2023-07-29T08:20:28;27.20;62.70
3850;DHT22;1940;51.052;13.678;2023-07-29T08:22:53;27.50;61.50
3850;DHT22;1940;51.052;13.678;2023-07-29T08:25:19;28.00;60.50
3850;DHT22;1940;51.052;13.678;2023-07-29T08:27:44;28.60;59.90
3850;DHT22;1940;51.052;13.678;2023-07-29T08:30:10;28.50;60.00
3850;DHT22;1940;51.052;13.678;2023-07-29T08:32:36;28.30;60.10
3850;DHT22;1940;51.052;13.678;2023-07-29T08:35:01;27.70;61.20
3850;DHT22;1940;51.052;13.678;2023-07-29T08:37:27;27.50;61.80
3850;DHT22;1940;51.052;13.678;2023-07-29T08:39:52;27.70;61.90
3850;DHT22;1940;51.052;13.678;2023-07-29T08:42:19;28.40;61.30
3850;DHT22;1940;51.052;13.678;2023-07-29T08:44:48;29.70;58.70
3850;DHT22;1940;51.052;13.678;2023-07-29T08:47:14;30.40;56.90
3850;DHT22;1940;51.052;13.678;2023-07-29T08:49:40;31.10;55.80
3850;DHT22;1940;51.052;13.678;2023-07-29T08:52:07;31.20;54.70
3850;DHT22;1940;51.052;13.678;2023-07-29T08:54:32;31.00;54.60
3850;DHT22;1940;51.052;13.678;2023-07-29T08:56:59;30.70;56.40
3850;DHT22;1940;51.052;13.678;2023-07-29T08:59:25;30.60;56.10
3850;DHT22;1940;51.052;13.678;2023-07-29T09:01:51;30.30;57.10
3850;DHT22;1940;51.052;13.678;2023-07-29T09:04:20;30.20;57.60
3850;DHT22;1940;51.052;13.678;2023-07-29T09:06:47;29.90;57.70
3850;DHT22;1940;51.052;13.678;2023-07-29T09:09:15;29.60;58.70
3850;DHT22;1940;51.052;13.678;2023-07-29T09:11:40;29.50;59.30
3850;DHT22;1940;51.052;13.678;2023-07-29T09:14:06;29.40;59.00
3850;DHT22;1940;51.052;13.678;2023-07-29T09:16:32;29.30;59.40
3850;DHT22;1940;51.052;13.678;2023-07-29T09:19:01;29.30;58.90
3850;DHT22;1940;51.052;13.678;2023-07-29T09:21:27;28.70;59.70
3850;DHT22;1940;51.052;13.678;2023-07-29T09:23:54;28.20;60.80
3850;DHT22;1940;51.052;13.678;2023-07-29T09:26:27;28.10;61.20
3850;DHT22;1940;51.052;13.678;2023-07-29T09:28:54;27.80;61.60
3850;DHT22;1940;51.052;13.678;2023-07-29T09:31:24;28.00;62.20
3850;DHT22;1940;51.052;13.678;2023-07-29T09:33:55;28.50;61.40
3850;DHT22;1940;51.052;13.678;2023-07-29T09:36:22;29.30;59.10
3850;DHT22;1940;51.052;13.678;2023-07-29T09:38:48;29.10;58.80
3850;DHT22;1940;51.052;13.678;2023-07-29T09:41:17;28.90;60.30
3850;DHT22;1940;51.052;13.678;2023-07-29T09:43:42;29.10;60.70
3850;DHT22;1940;51.052;13.678;2023-07-29T09:46:08;29.20;59.90
3850;DHT22;1940;51.052;13.678;2023-07-29T09:48:39;29.30;60.40
3850;DHT22;1940;51.052;13.678;2023-07-29T09:51:12;28.90;58.80
3850;DHT22;1940;51.052;13.678;2023-07-29T09:53:48;28.50;61.00
3850;DHT22;1940;51.052;13.678;2023-07-29T09:56:15;28.40;61.80
3850;DHT22;1940;51.052;13.678;2023-07-29T09:58:45;28.30;61.60
3850;DHT22;1940;51.052;13.678;2023-07-29T10:01:11;28.30;61.20
3850;DHT22;1940;51.052;13.678;2023-07-29T10:03:37;28.10;61.30
3850;DHT22;1940;51.052;13.678;2023-07-29T10:06:04;27.30;63.50
3850;DHT22;1940;51.052;13.678;2023-07-29T10:08:30;26.90;64.60
3850;DHT22;1940;51.052;13.678;2023-07-29T10:11:06;26.30;65.40
3850;DHT22;1940;51.052;13.678;2023-07-29T10:13:33;25.90;66.30
3850;DHT22;1940;51.052;13.678;2023-07-29T10:15:59;25.60;67.60
3850;DHT22;1940;51.052;13.678;2023-07-29T10:18:28;25.50;67.90
3850;DHT22;1940;51.052;13.678;2023-07-29T10:20:54;25.30;69.20
3850;DHT22;1940;51.052;13.678;2023-07-29T10:23:22;25.50;69.70
3850;DHT22;1940;51.052;13.678;2023-07-29T10:25:57;26.20;69.10
3850;DHT22;1940;51.052;13.678;2023-07-29T10:28:25;26.90;68.30
3850;DHT22;1940;51.052;13.678;2023-07-29T10:30:52;27.00;67.60
3850;DHT22;1940;51.052;13.678;2023-07-29T10:33:17;27.20;67.30
3850;DHT22;1940;51.052;13.678;2023-07-29T10:35:43;27.50;67.20
3850;DHT22;1940;51.052;13.678;2023-07-29T10:38:08;27.70;66.50
3850;DHT22;1940;51.052;13.678;2023-07-29T10:41:07;28.00;65.80
3850;DHT22;1940;51.052;13.678;2023-07-29T10:43:34;28.00;66.10
3850;DHT22;1940;51.052;13.678;2023-07-29T10:48:44;27.80;66.70
3850;DHT22;1940;51.052;13.678;2023-07-29T10:51:22;27.30;67.70
3850;DHT22;1940;51.052;13.678;2023-07-29T10:53:48;27.00;68.80
3850;DHT22;1940;51.052;13.678;2023-07-29T10:56:26;26.70;69.90
3850;DHT22;1940;51.052;13.678;2023-07-29T10:58:51;26.30;71.00
3850;DHT22;1940;51.052;13.678;2023-07-29T11:01:28;26.20;71.70
3850;DHT22;1940;51.052;13.678;2023-07-29T11:12:39;26.50;67.50
3850;DHT22;1940;51.052;13.678;2023-07-29T11:15:32;26.80;68.70
3850;DHT22;1940;51.052;13.678;2023-07-29T11:18:00;26.70;70.20
3850;DHT22;1940;51.052;13.678;2023-07-29T11:20:28;26.70;71.10
3850;DHT22;1940;51.052;13.678;2023-07-29T11:22:54;26.60;71.80
3850;DHT22;1940;51.052;13.678;2023-07-29T11:25:21;26.30;74.80
3850;DHT22;1940;51.052;13.678;2023-07-29T11:27:47;25.40;78.80
3850;DHT22;1940;51.052;13.678;2023-07-29T11:30:15;24.70;81.20
3850;DHT22;1940;51.052;13.678;2023-07-29T11:32:42;24.30;80.80
3850;DHT22;1940;51.052;13.678;2023-07-29T11:35:13;23.90;82.80
3850;DHT22;1940;51.052;13.678;2023-07-29T11:37:40;23.90;83.50
3850;DHT22;1940;51.052;13.678;2023-07-29T11:40:07;23.90;84.50
3850;DHT22;1940;51.052;13.678;2023-07-29T11:42:34;24.20;85.40
3850;DHT22;1940;51.052;13.678;2023-07-29T11:45:01;24.40;83.50
3850;DHT22;1940;51.052;13.678;2023-07-29T11:47:26;24.60;84.20
3850;DHT22;1940;51.052;13.678;2023-07-29T11:49:52;24.80;83.30
3850;DHT22;1940;51.052;13.678;2023-07-29T11:52:18;24.90;82.20
3850;DHT22;1940;51.052;13.678;2023-07-29T11:54:46;24.90;81.90
3850;DHT22;1940;51.052;13.678;2023-07-29T11:57:12;24.90;81.30
3850;DHT22;1940;51.052;13.678;2023-07-29T11:59:39;24.90;81.80
3850;DHT22;1940;51.052;13.678;2023-07-29T12:02:13;24.90;81.40
3850;DHT22;1940;51.052;13.678;2023-07-29T12:04:39;24.90;81.30
3850;DHT22;1940;51.052;13.678;2023-07-29T12:07:06;24.90;81.30
3850;DHT22;1940;51.052;13.678;2023-07-29T12:09:31;24.80;80.60
3850;DHT22;1940;51.052;13.678;2023-07-29T12:11:58;24.60;81.30
3850;DHT22;1940;51.052;13.678;2023-07-29T12:14:31;24.70;81.90
3850;DHT22;1940;51.052;13.678;2023-07-29T12:17:00;24.80;81.50
3850;DHT22;1940;51.052;13.678;2023-07-29T12:19:41;24.90;78.10
3850;DHT22;1940;51.052;13.678;2023-07-29T12:22:08;24.80;75.80
3850;DHT22;1940;51.052;13.678;2023-07-29T12:24:39;24.70;75.90
3850;DHT22;1940;51.052;13.678;2023-07-29T12:27:10;24.80;75.90
3850;DHT22;1940;51.052;13.678;2023-07-29T12:29:40;24.80;76.20
3850;DHT22;1940;51.052;13.678;2023-07-29T12:32:06;25.00;75.10
3850;DHT22;1940;51.052;13.678;2023-07-29T12:34:32;25.20;76.00
3850;DHT22;1940;51.052;13.678;2023-07-29T12:36:58;25.40;73.90
3850;DHT22;1940;51.052;13.678;2023-07-29T12:39:25;25.50;72.40
3850;DHT22;1940;51.052;13.678;2023-07-29T12:41:56;25.60;73.20
3850;DHT22;1940;51.052;13.678;2023-07-29T12:44:27;25.80;72.60
3850;DHT22;1940;51.052;13.678;2023-07-29T12:46:52;26.00;73.20
3850;DHT22;1940;51.052;13.678;2023-07-29T12:49:18;26.20;72.30
3850;DHT22;1940;51.052;13.678;2023-07-29T12:51:44;26.30;70.90
3850;DHT22;1940;51.052;13.678;2023-07-29T12:54:09;26.40;70.70
3850;DHT22;1940;51.052;13.678;2023-07-29T12:56:35;26.40;70.90
3850;DHT22;1940;51.052;13.678;2023-07-29T12:59:01;26.60;70.30
3850;DHT22;1940;51.052;13.678;2023-07-29T13:01:28;26.70;69.20
3850;DHT22;1940;51.052;13.678;2023-07-29T13:03:54;26.80;69.00
3850;DHT22;1940;51.052;13.678;2023-07-29T13:06:20;26.80;69.10
3850;DHT22;1940;51.052;13.678;2023-07-29T13:08:47;27.00;67.90
3850;DHT22;1940;51.052;13.678;2023-07-29T13:11:14;27.00;68.70
3850;DHT22;1940;51.052;13.678;2023-07-29T13:13:40;26.90;69.10
3850;DHT22;1940;51.052;13.678;2023-07-29T13:16:05;26.80;68.60
3850;DHT22;1940;51.052;13.678;2023-07-29T13:18:32;26.60;68.10
3850;DHT22;1940;51.052;13.678;2023-07-29T13:20:57;26.60;68.90
3850;DHT22;1940;51.052;13.678;2023-07-29T13:23:24;26.50;69.50
3850;DHT22;1940;51.052;13.678;2023-07-29T13:25:50;26.60;70.10
3850;DHT22;1940;51.052;13.678;2023-07-29T13:28:16;26.50;68.40
3850;DHT22;1940;51.052;13.678;2023-07-29T13:30:42;26.60;68.80
3850;DHT22;1940;51.052;13.678;2023-07-29T13:33:08;26.70;68.80
3850;DHT22;1940;51.052;13.678;2023-07-29T13:35:33;26.80;68.60
3850;DHT22;1940;51.052;13.678;2023-07-29T13:37:59;27.00;66.90
3850;DHT22;1940;51.052;13.678;2023-07-29T13:40:25;27.10;65.10
3850;DHT22;1940;51.052;13.678;2023-07-29T13:42:51;26.80;66.60
3850;DHT22;1940;51.052;13.678;2023-07-29T13:45:17;26.60;65.90
3850;DHT22;1940;51.052;13.678;2023-07-29T13:47:43;26.50;67.20
3850;DHT22;1940;51.052;13.678;2023-07-29T13:50:09;26.60;67.30
3850;DHT22;1940;51.052;13.678;2023-07-29T13:52:38;26.80;66.30
3850;DHT22;1940;51.052;13.678;2023-07-29T13:55:04;26.80;65.60
3850;DHT22;1940;51.052;13.678;2023-07-29T13:57:31;26.70;66.00
3850;DHT22;1940;51.052;13.678;2023-07-29T13:59:56;26.80;65.30
3850;DHT22;1940;51.052;13.678;2023-07-29T14:02:22;26.60;64.10
3850;DHT22;1940;51.052;13.678;2023-07-29T14:04:47;26.40;65.40
3850;DHT22;1940;51.052;13.678;2023-07-29T14:07:13;26.50;65.80
3850;DHT22;1940;51.052;13.678;2023-07-29T14:09:38;26.60;65.00
3850;DHT22;1940;51.052;13.678;2023-07-29T14:12:04;26.60;64.70
3850;DHT22;1940;51.052;13.678;2023-07-29T14:14:30;26.70;64.90
3850;DHT22;1940;51.052;13.678;2023-07-29T14:16:56;26.70;63.50
3850;DHT22;1940;51.052;13.678;2023-07-29T14:19:22;26.60;62.70
3850;DHT22;1940;51.052;13.678;2023-07-29T14:21:48;26.50;63.70
3850;DHT22;1940;51.052;13.678;2023-07-29T14:24:15;26.50;63.70
3850;DHT22;1940;51.052;13.678;2023-07-29T14:26:41;26.60;63.90
3850;DHT22;1940;51.052;13.678;2023-07-29T14:29:06;26.60;63.10
3850;DHT22;1940;51.052;13.678;2023-07-29T14:31:32;26.60;62.30
3850;DHT22;1940;51.052;13.678;2023-07-29T14:33:57;26.60;62.00
3850;DHT22;1940;51.052;13.678;2023-07-29T14:36:23;26.60;62.10
3850;DHT22;1940;51.052;13.678;2023-07-29T14:38:49;26.40;62.70
3850;DHT22;1940;51.052;13.678;2023-07-29T14:41:14;26.50;62.50
3850;DHT22;1940;51.052;13.678;2023-07-29T14:43:40;26.50;61.60
3850;DHT22;1940;51.052;13.678;2023-07-29T14:46:05;26.40;61.80
3850;DHT22;1940;51.052;13.678;2023-07-29T14:48:31;26.40;61.90
3850;DHT22;1940;51.052;13.678;2023-07-29T14:50:57;26.40;61.90
3850;DHT22;1940;51.052;13.678;2023-07-29T14:53:22;26.50;61.70
3850;DHT22;1940;51.052;13.678;2023-07-29T14:55:48;26.50;61.50
3850;DHT22;1940;51.052;13.678;2023-07-29T14:58:14;26.50;61.80
3850;DHT22;1940;51.052;13.678;2023-07-29T15:00:40;26.60;62.40
3850;DHT22;1940;51.052;13.678;2023-07-29T15:03:05;26.70;61.70
3850;DHT22;1940;51.052;13.678;2023-07-29T15:05:32;26.80;61.60
3850;DHT22;1940;51.052;13.678;2023-07-29T15:07:58;26.80;61.50
3850;DHT22;1940;51.052;13.678;2023-07-29T15:10:23;26.90;61.60
3850;DHT22;1940;51.052;13.678;2023-07-29T15:12:49;26.80;60.80
3850;DHT22;1940;51.052;13.678;2023-07-29T15:15:14;26.80;61.20
3850;DHT22;1940;51.052;13.678;2023-07-29T15:17:40;26.90;62.00
3850;DHT22;1940;51.052;13.678;2023-07-29T15:20:06;26.90;61.90
3850;DHT22;1940;51.052;13.678;2023-07-29T15:22:31;26.90;61.40
3850;DHT22;1940;51.052;13.678;2023-07-29T15:24:58;27.00;61.80
3850;DHT22;1940;51.052;13.678;2023-07-29T15:27:26;26.80;61.50
3850;DHT22;1940;51.052;13.678;2023-07-29T15:29:51;26.90;62.00
3850;DHT22;1940;51.052;13.678;2023-07-29T15:32:17;27.00;61.60
3850;DHT22;1940;51.052;13.678;2023-07-29T15:34:43;27.00;60.80
3850;DHT22;1940;51.052;13.678;2023-07-29T15:37:08;27.10;61.30
3850;DHT22;1940;51.052;13.678;2023-07-29T15:39:34;27.10;60.80
3850;DHT22;1940;51.052;13.678;2023-07-29T15:41:59;27.10;61.20
3850;DHT22;1940;51.052;13.678;2023-07-29T15:44:25;27.00;61.30
3850;DHT22;1940;51.052;13.678;2023-07-29T15:46:50;27.00;60.60
3850;DHT22;1940;51.052;13.678;2023-07-29T15:49:20;27.00;61.00
3850;DHT22;1940;51.052;13.678;2023-07-29T15:51:46;26.90;60.60
3850;DHT22;1940;51.052;13.678;2023-07-29T15:54:12;26.90;60.80
3850;DHT22;1940;51.052;13.678;2023-07-29T15:56:37;26.90;61.20